Time;durP1;ratioP1;P1;durP2;ratioP2;P2;SDS_P1;SDS_P2;PMS_P1;PMS_P2;Temp;Humidity;BMP_temperature;BMP_pressure;BME280_temperature;BME280_humidity;BME280_pressure;Samples;Min_cycle;Max_cycle;Signal;HPM_P1;HPM_P2
2021/06/14 00:01:58;;;;;;;4.73;2.90;;;16.90;94.00;;;;;;5114203;28;20463;-68
2021/06/14 00:04:23;;;;;;;4.53;3.03;;;17.00;94.00;;;;;;5114168;28;20175;-68
2021/06/14 00:06:49;;;;;;;4.13;2.60;;;16.90;94.10;;;;;;5112713;28;20220;-67
2021/06/14 00:09:19;;;;;;;3.27;2.17;;;16.80;94.10;;;;;;5114103;28;20262;-69
2021/06/14 00:11:45;;;;;;;3.87;2.30;;;16.70;94.30;;;;;;5112766;28;20249;-67
2021/06/14 00:14:11;;;;;;;4.03;2.43;;;16.60;94.30;;;;;;5114074;28;20871;-69
2021/06/14 00:16:37;;;;;;;3.23;2.73;;;16.50;94.40;;;;;;5114107;28;20201;-67
2021/06/14 00:19:05;;;;;;;3.53;2.77;;;16.50;94.40;;;;;;5113913;28;20164;-68
2021/06/14 00:21:32;;;;;;;4.60;2.77;;;16.40;94.60;;;;;;5113872;28;20480;-68
2021/06/14 00:23:58;;;;;;;3.80;2.83;;;16.40;94.60;;;;;;5112570;28;20419;-68
2021/06/14 00:26:23;;;;;;;3.33;2.77;;;16.40;94.60;;;;;;5113794;28;20480;-68
2021/06/14 00:28:49;;;;;;;4.93;2.73;;;16.40;94.60;;;;;;5113896;28;20183;-69
2021/06/14 00:31:15;;;;;;;3.23;2.57;;;16.40;94.80;;;;;;5113656;28;20219;-69
2021/06/14 00:33:41;;;;;;;4.13;2.60;;;16.30;94.90;;;;;;5117010;28;20199;-70
2021/06/14 00:36:08;;;;;;;4.03;2.70;;;16.20;95.10;;;;;;5116402;28;20192;-68
2021/06/14 00:38:35;;;;;;;5.37;3.10;;;16.30;95.10;;;;;;5117818;28;20588;-67
2021/06/14 00:41:01;;;;;;;3.37;3.03;;;16.20;95.10;;;;;;5117630;28;20463;-69
2021/06/14 00:43:27;;;;;;;3.70;3.40;;;16.20;95.10;;;;;;5116541;28;20965;-68
2021/06/14 00:45:53;;;;;;;3.57;2.77;;;16.10;95.30;;;;;;5117399;28;20559;-68
2021/06/14 00:48:19;;;;;;;3.73;2.60;;;16.10;95.40;;;;;;5117656;28;20171;-68
2021/06/14 00:50:52;;;;;;;2.80;2.50;;;16.00;95.40;;;;;;5117455;28;20490;-67
2021/06/14 00:53:22;;;;;;;4.50;2.83;;;15.90;95.50;;;;;;5117741;28;20420;-67
2021/06/14 00:55:48;;;;;;;5.83;3.23;;;15.90;95.70;;;;;;5117438;28;20424;-67
2021/06/14 00:58:14;;;;;;;4.03;3.30;;;15.90;95.80;;;;;;5117955;28;20896;-69
2021/06/14 01:00:40;;;;;;;3.27;2.97;;;15.80;95.80;;;;;;5117337;28;20497;-67
2021/06/14 01:03:06;;;;;;;5.43;2.97;;;15.90;95.90;;;;;;5116094;28;20424;-68
2021/06/14 01:05:37;;;;;;;7.30;3.30;;;15.90;95.80;;;;;;5115897;28;20549;-69
2021/06/14 01:08:03;;;;;;;5.93;3.30;;;15.70;95.70;;;;;;5117810;28;20408;-67
2021/06/14 01:10:28;;;;;;;3.23;2.93;;;15.70;95.90;;;;;;5115861;28;20435;-68
2021/06/14 01:13:12;;;;;;;3.30;2.80;;;15.60;96.00;;;;;;5117602;28;20616;-69
2021/06/14 01:15:52;;;;;;;3.47;3.17;;;15.60;96.10;;;;;;5117109;28;20598;-69
2021/06/14 01:18:25;;;;;;;3.80;3.37;;;15.50;96.10;;;;;;5117415;28;20408;-67
2021/06/14 01:21:08;;;;;;;4.50;3.70;;;15.40;96.50;;;;;;5116659;28;20497;-69
2021/06/14 01:23:55;;;;;;;3.60;3.30;;;15.30;96.50;;;;;;5117065;28;20897;-67
2021/06/14 01:26:23;;;;;;;3.60;2.80;;;15.20;96.60;;;;;;5116831;28;20468;-67
2021/06/14 01:29:02;;;;;;;4.80;2.90;;;15.20;97.00;;;;;;5116787;28;20455;-67
2021/06/14 01:31:32;;;;;;;5.43;3.43;;;15.10;97.00;;;;;;5116773;28;20435;-68
2021/06/14 01:33:59;;;;;;;5.23;3.30;;;15.10;97.00;;;;;;5116750;28;20736;-67
2021/06/14 01:36:31;;;;;;;4.70;2.93;;;15.10;97.40;;;;;;5116626;28;20964;-68
2021/06/14 01:38:58;;;;;;;5.03;3.50;;;15.10;98.00;;;;;;5116670;28;20392;-68
2021/06/14 01:41:26;;;;;;;4.20;3.27;;;15.00;98.50;;;;;;5116671;28;20442;-68
2021/06/14 01:43:53;;;;;;;4.97;3.03;;;14.90;99.20;;;;;;5113910;28;20778;-68
2021/06/14 01:46:26;;;;;;;4.23;2.93;;;14.90;99.50;;;;;;5115086;28;20503;-67
2021/06/14 01:48:52;;;;;;;3.37;3.07;;;14.80;99.90;;;;;;5115470;28;20397;-68
2021/06/14 01:51:22;;;;;;;3.07;2.87;;;14.80;99.90;;;;;;5116354;28;20491;-68
2021/06/14 01:54:04;;;;;;;7.37;3.70;;;14.70;99.90;;;;;;5115086;28;20408;-66
2021/06/14 01:56:34;;;;;;;4.37;3.90;;;14.70;99.90;;;;;;5116398;28;20428;-68
2021/06/14 01:59:01;;;;;;;4.43;3.73;;;14.60;99.90;;;;;;5116214;28;20782;-67
2021/06/14 02:01:30;;;;;;;4.13;3.73;;;14.60;99.90;;;;;;5116154;28;20436;-68
2021/06/14 02:03:56;;;;;;;7.43;4.13;;;14.60;99.90;;;;;;5116075;28;20480;-69
2021/06/14 02:06:27;;;;;;;5.47;4.30;;;14.50;99.90;;;;;;5115962;28;20468;-69
2021/06/14 02:08:52;;;;;;;6.20;3.97;;;14.40;99.90;;;;;;5116176;28;20946;-68
2021/06/14 02:11:19;;;;;;;5.27;3.77;;;14.50;99.90;;;;;;5115931;28;20424;-68
2021/06/14 02:13:46;;;;;;;5.87;3.43;;;14.50;99.90;;;;;;5115988;28;20179;-67
2021/06/14 02:16:14;;;;;;;4.40;3.30;;;14.50;99.90;;;;;;5115729;27;20454;-69
2021/06/14 02:18:40;;;;;;;4.33;3.60;;;14.50;99.90;;;;;;5115898;28;20924;-69
2021/06/14 02:21:05;;;;;;;4.20;3.73;;;14.50;99.90;;;;;;5115502;28;20463;-66
2021/06/14 02:23:31;;;;;;;5.20;3.70;;;14.50;99.90;;;;;;5115773;28;20233;-69
2021/06/14 02:25:57;;;;;;;4.00;3.30;;;14.50;99.90;;;;;;5115461;28;20215;-66
2021/06/14 02:28:22;;;;;;;5.03;3.57;;;14.60;99.90;;;;;;5115747;28;20485;-68
2021/06/14 02:30:48;;;;;;;5.37;3.77;;;14.60;99.90;;;;;;5115599;28;20211;-69
2021/06/14 02:33:14;;;;;;;5.33;3.60;;;14.50;99.90;;;;;;5116118;28;20652;-69
2021/06/14 02:35:39;;;;;;;3.90;3.60;;;14.50;99.90;;;;;;5115485;28;20219;-68
2021/06/14 02:38:08;;;;;;;3.87;3.53;;;14.50;99.90;;;;;;5116042;28;20206;-66
2021/06/14 02:40:34;;;;;;;7.33;3.53;;;14.40;99.90;;;;;;5115374;28;20191;-68
2021/06/14 02:43:07;;;;;;;8.10;3.57;;;14.40;99.90;;;;;;5115931;28;20440;-68
2021/06/14 02:45:33;;;;;;;3.87;3.30;;;14.40;99.90;;;;;;5115247;28;20464;-67
2021/06/14 02:47:59;;;;;;;6.13;3.80;;;14.30;99.90;;;;;;5115200;28;20415;-67
2021/06/14 02:50:29;;;;;;;7.93;3.60;;;14.40;99.90;;;;;;5113900;28;20514;-67
2021/06/14 02:52:55;;;;;;;7.77;3.70;;;14.40;99.90;;;;;;5115715;28;20502;-67
2021/06/14 02:55:28;;;;;;;5.97;3.60;;;14.30;99.90;;;;;;5114783;28;20432;-67
2021/06/14 02:57:57;;;;;;;4.20;3.80;;;14.30;99.90;;;;;;5115511;28;20451;-68
2021/06/14 03:00:29;;;;;;;4.37;3.47;;;14.40;99.90;;;;;;5114952;28;20783;-68
2021/06/14 03:03:00;;;;;;;3.80;3.50;;;14.40;99.90;;;;;;5113964;28;20823;-67
2021/06/14 03:05:26;;;;;;;5.70;3.23;;;14.30;99.90;;;;;;5114848;28;20448;-68
2021/06/14 03:07:55;;;;;;;5.50;4.10;;;14.30;99.90;;;;;;5115348;28;20408;-67
2021/06/14 03:10:23;;;;;;;3.90;3.10;;;14.30;99.90;;;;;;5114864;28;20456;-67
2021/06/14 03:12:55;;;;;;;5.80;3.90;;;14.30;99.90;;;;;;5115252;28;20502;-68
2021/06/14 03:15:23;;;;;;;4.10;3.43;;;14.30;99.90;;;;;;5114820;28;20422;-67
2021/06/14 03:17:51;;;;;;;5.60;4.10;;;14.30;99.90;;;;;;5115216;28;20934;-68
2021/06/14 03:20:18;;;;;;;6.63;3.53;;;14.40;99.90;;;;;;5114767;28;20424;-68
2021/06/14 03:22:44;;;;;;;5.47;3.40;;;14.30;99.90;;;;;;5115114;28;20494;-68
2021/06/14 03:25:10;;;;;;;7.57;3.87;;;14.20;99.90;;;;;;5114731;28;20448;-69
2021/06/14 03:27:36;;;;;;;5.40;3.73;;;14.30;99.90;;;;;;5114490;28;20259;-67
2021/06/14 03:30:03;;;;;;;4.00;3.20;;;14.40;99.90;;;;;;5114550;28;20916;-69
2021/06/14 03:32:30;;;;;;;5.20;3.50;;;14.40;99.90;;;;;;5114875;28;20414;-68
2021/06/14 03:34:56;;;;;;;3.10;2.60;;;14.40;99.90;;;;;;5113181;28;20432;-68
2021/06/14 03:37:21;;;;;;;5.90;3.90;;;14.40;99.90;;;;;;5113082;28;20456;-68
2021/06/14 03:39:47;;;;;;;6.87;2.97;;;14.50;99.90;;;;;;5114422;28;20259;-68
2021/06/14 03:42:18;;;;;;;3.70;3.40;;;14.40;99.90;;;;;;5114718;28;20188;-67
2021/06/14 03:44:44;;;;;;;5.43;3.47;;;14.50;99.90;;;;;;5113159;28;20176;-67
2021/06/14 03:47:10;;;;;;;6.53;3.70;;;14.50;99.90;;;;;;5114333;28;20480;-68
2021/06/14 03:49:35;;;;;;;4.43;3.07;;;14.50;99.90;;;;;;5112981;28;20481;-68
2021/06/14 03:52:01;;;;;;;3.20;2.90;;;14.50;99.90;;;;;;5114436;28;20199;-68
2021/06/14 03:54:27;;;;;;;7.57;3.60;;;14.50;99.90;;;;;;5114316;28;20171;-69
2021/06/14 03:56:52;;;;;;;4.17;3.03;;;14.40;99.90;;;;;;5114221;28;20248;-68
2021/06/14 03:59:18;;;;;;;3.90;2.77;;;14.50;99.90;;;;;;5112880;28;20180;-69
2021/06/14 04:01:43;;;;;;;7.73;3.33;;;14.50;99.90;;;;;;5114286;28;20203;-68
2021/06/14 04:06:35;;;;;;;4.60;3.20;;;14.50;99.90;;;;;;5114160;28;20212;-68
2021/06/14 04:09:00;;;;;;;18.60;4.40;;;14.60;99.90;;;;;;5117932;28;20171;-69
2021/06/14 04:11:26;;;;;;;3.90;3.10;;;14.50;99.90;;;;;;5118309;28;20207;-67
2021/06/14 04:13:52;;;;;;;3.70;3.40;;;14.50;99.90;;;;;;5118318;28;20183;-70
2021/06/14 04:16:19;;;;;;;3.60;3.30;;;14.40;99.90;;;;;;5116799;28;20621;-69
2021/06/14 04:18:44;;;;;;;3.83;3.43;;;14.40;99.90;;;;;;5118203;28;20747;-67
2021/06/14 04:21:10;;;;;;;3.77;3.43;;;14.50;99.90;;;;;;5117953;28;20483;-69
2021/06/14 04:23:36;;;;;;;6.23;3.60;;;14.50;99.90;;;;;;5118117;28;20628;-68
2021/06/14 04:26:02;;;;;;;4.23;3.70;;;14.50;99.90;;;;;;5116415;28;20460;-67
2021/06/14 04:28:28;;;;;;;5.50;3.63;;;14.40;99.90;;;;;;5117460;28;20449;-68
2021/06/14 04:30:53;;;;;;;7.90;4.33;;;14.50;99.90;;;;;;5117064;28;20668;-67
2021/06/14 04:33:19;;;;;;;5.23;3.10;;;14.60;99.90;;;;;;5117824;28;20271;-69
2021/06/14 04:35:45;;;;;;;8.47;3.80;;;14.60;99.90;;;;;;5116492;28;20198;-68
2021/06/14 04:38:10;;;;;;;5.57;3.53;;;14.60;99.90;;;;;;5118253;28;20179;-68
2021/06/14 04:40:36;;;;;;;9.23;3.60;;;14.60;99.90;;;;;;5116426;28;20241;-68
2021/06/14 04:43:02;;;;;;;3.47;3.20;;;14.60;99.90;;;;;;5118213;28;20214;-67
2021/06/14 04:45:28;;;;;;;4.60;3.40;;;14.60;99.90;;;;;;5117519;28;20215;-67
2021/06/14 04:47:54;;;;;;;6.60;3.80;;;14.70;99.90;;;;;;5118043;28;20428;-67
2021/06/14 04:50:20;;;;;;;5.37;4.00;;;14.70;99.90;;;;;;5117482;28;20416;-69
2021/06/14 04:52:45;;;;;;;13.20;4.23;;;14.80;99.90;;;;;;5117982;28;20176;-67
2021/06/14 04:55:11;;;;;;;5.10;3.40;;;14.90;99.90;;;;;;5117452;28;20423;-69
2021/06/14 04:57:37;;;;;;;6.07;3.50;;;15.10;99.90;;;;;;5116092;28;20219;-68
2021/06/14 05:00:05;;;;;;;4.47;3.40;;;15.20;99.90;;;;;;5116007;28;20599;-68
2021/06/14 05:02:31;;;;;;;6.90;3.60;;;15.30;99.90;;;;;;5117516;28;20183;-67
2021/06/14 05:04:57;;;;;;;4.37;3.60;;;15.30;99.90;;;;;;5117184;28;20453;-67
2021/06/14 05:07:23;;;;;;;3.83;3.30;;;15.30;99.90;;;;;;5116008;28;20703;-67
2021/06/14 05:09:49;;;;;;;4.10;3.70;;;15.30;99.90;;;;;;5115786;28;20400;-67
2021/06/14 05:12:14;;;;;;;4.17;3.77;;;15.30;99.90;;;;;;5116074;28;20211;-67
2021/06/14 05:14:40;;;;;;;5.70;3.63;;;15.30;99.90;;;;;;5117016;28;20171;-68
2021/06/14 05:17:06;;;;;;;4.03;3.50;;;15.50;99.90;;;;;;5117178;28;20211;-67
2021/06/14 05:19:31;;;;;;;4.83;3.50;;;15.60;99.90;;;;;;5116764;28;20659;-67
2021/06/14 05:22:01;;;;;;;4.10;3.70;;;15.80;99.90;;;;;;5116679;28;20467;-67
2021/06/14 05:24:27;;;;;;;5.23;3.80;;;15.90;99.90;;;;;;5116541;28;20636;-67
2021/06/14 05:26:53;;;;;;;4.27;3.80;;;16.00;99.90;;;;;;5116405;28;20487;-67
2021/06/14 05:29:18;;;;;;;4.03;3.67;;;16.10;99.90;;;;;;5115281;28;20905;-68
2021/06/14 05:31:44;;;;;;;5.43;3.80;;;16.10;99.90;;;;;;5116850;28;20206;-68
2021/06/14 05:34:09;;;;;;;3.97;3.53;;;16.10;99.90;;;;;;5116656;28;20509;-69
2021/06/14 05:36:35;;;;;;;5.70;4.00;;;16.10;99.90;;;;;;5116708;28;20266;-67
2021/06/14 05:39:01;;;;;;;3.40;3.10;;;16.20;99.90;;;;;;5116383;28;20167;-69
2021/06/14 05:41:27;;;;;;;7.10;3.40;;;16.10;99.90;;;;;;5115585;28;20204;-67
2021/06/14 05:43:53;;;;;;;13.73;4.17;;;16.40;99.90;;;;;;5108505;28;20405;-68
2021/06/14 05:46:18;;;;;;;9.33;4.20;;;16.40;99.90;;;;;;5094053;28;20220;-68
2021/06/14 05:48:44;;;;;;;5.47;3.23;;;16.40;99.90;;;;;;5103918;27;20542;-68
2021/06/14 05:51:09;;;;;;;5.67;3.70;;;16.40;99.90;;;;;;5110664;27;20602;-69
2021/06/14 05:53:35;;;;;;;7.80;3.73;;;16.40;99.90;;;;;;5115186;28;20497;-69
2021/06/14 05:56:01;;;;;;;4.73;3.87;;;16.40;99.90;;;;;;5115708;28;20612;-69
2021/06/14 05:58:27;;;;;;;9.57;3.07;;;16.40;99.90;;;;;;5114568;28;20220;-70
2021/06/14 06:00:52;;;;;;;5.53;5.07;;;16.40;99.90;;;;;;5114805;28;20565;-69
2021/06/14 06:03:18;;;;;;;3.70;3.40;;;16.40;99.90;;;;;;5114822;28;20188;-71
2021/06/14 06:05:43;;;;;;;6.13;4.00;;;16.50;99.90;;;;;;5113369;28;20215;-68
2021/06/14 06:08:09;;;;;;;6.77;3.43;;;16.50;99.90;;;;;;5114006;28;20191;-68
2021/06/14 06:10:34;;;;;;;5.67;3.60;;;16.60;99.90;;;;;;5108731;28;20207;-67
2021/06/14 06:13:01;;;;;;;3.80;3.33;;;16.80;99.90;;;;;;5115999;28;20639;-67
2021/06/14 06:15:27;;;;;;;4.00;3.23;;;17.00;99.90;;;;;;5113756;28;20664;-68
2021/06/14 06:17:53;;;;;;;5.80;3.70;;;17.10;99.90;;;;;;5095857;28;20685;-67
2021/06/14 06:20:19;;;;;;;4.00;3.60;;;17.00;99.90;;;;;;5095725;28;20429;-68
2021/06/14 06:22:45;;;;;;;6.00;4.20;;;17.10;99.90;;;;;;5114442;28;20294;-68
2021/06/14 06:25:14;;;;;;;5.83;4.53;;;17.10;99.90;;;;;;5114199;28;20678;-67
2021/06/14 06:27:40;;;;;;;7.60;4.20;;;17.10;99.90;;;;;;5115654;28;20791;-68
2021/06/14 06:30:07;;;;;;;7.63;4.80;;;17.10;99.90;;;;;;5114044;28;20427;-68
2021/06/14 06:32:33;;;;;;;6.50;4.73;;;17.20;99.90;;;;;;5115920;28;20419;-67
2021/06/14 06:34:59;;;;;;;5.17;3.87;;;17.30;99.90;;;;;;5115425;28;20499;-67
2021/06/14 06:37:25;;;;;;;5.23;4.00;;;17.70;99.90;;;;;;5115460;28;21007;-68
2021/06/14 06:39:50;;;;;;;5.07;4.30;;;18.00;99.90;;;;;;5114604;27;20545;-68
2021/06/14 06:42:16;;;;;;;6.00;4.13;;;18.60;99.90;;;;;;5114173;28;20689;-67
2021/06/14 06:44:42;;;;;;;7.00;4.10;;;18.60;99.90;;;;;;5114503;28;20187;-70
2021/06/14 06:47:07;;;;;;;6.80;4.30;;;18.30;99.90;;;;;;5109392;28;20223;-67
2021/06/14 06:49:34;;;;;;;4.43;4.13;;;17.90;99.90;;;;;;5105376;27;20177;-69
2021/06/14 06:52:00;;;;;;;10.20;4.40;;;18.00;99.90;;;;;;5108268;28;20699;-68
2021/06/14 06:54:25;;;;;;;8.20;4.20;;;18.20;99.90;;;;;;5114054;28;20408;-68
2021/06/14 06:56:53;;;;;;;5.53;3.30;;;18.70;99.90;;;;;;5100284;28;20521;-67
2021/06/14 06:59:20;;;;;;;5.60;3.07;;;18.80;99.90;;;;;;5111860;28;20190;-69
2021/06/14 07:01:46;;;;;;;4.00;3.60;;;18.60;99.90;;;;;;5114058;27;20455;-67
2021/06/14 07:04:11;;;;;;;8.07;3.53;;;18.60;99.90;;;;;;5111313;27;20468;-69
2021/06/14 07:06:37;;;;;;;7.00;3.00;;;18.60;99.90;;;;;;5107623;28;20480;-68
2021/06/14 07:09:04;;;;;;;4.00;2.80;;;18.50;99.90;;;;;;5109072;27;20180;-68
2021/06/14 07:11:31;;;;;;;5.93;3.20;;;19.20;99.90;;;;;;5107069;28;20199;-68
2021/06/14 07:13:57;;;;;;;4.03;3.00;;;19.70;99.90;;;;;;5113524;28;20543;-69
2021/06/14 07:16:23;;;;;;;5.37;2.70;;;19.50;99.90;;;;;;5111256;28;20467;-68
2021/06/14 07:18:50;;;;;;;4.07;3.37;;;19.40;99.90;;;;;;5109946;28;20780;-69
2021/06/14 07:21:16;;;;;;;6.27;3.40;;;19.10;99.90;;;;;;5109935;28;20492;-67
2021/06/14 07:23:42;;;;;;;5.57;3.40;;;18.80;99.90;;;;;;5113505;28;20500;-68
2021/06/14 07:26:08;;;;;;;5.07;3.27;;;19.10;99.90;;;;;;5109824;28;20946;-67
2021/06/14 07:28:34;;;;;;;5.73;3.37;;;19.40;99.90;;;;;;5113668;28;20541;-69
2021/06/14 07:31:04;;;;;;;3.47;3.17;;;19.70;99.90;;;;;;5114249;28;20432;-69
2021/06/14 07:33:31;;;;;;;8.53;3.30;;;19.60;99.90;;;;;;5113746;28;20500;-67
2021/06/14 07:35:57;;;;;;;5.90;2.70;;;19.80;99.90;;;;;;5122684;27;20421;-67
2021/06/14 07:38:23;;;;;;;3.50;3.03;;;19.80;99.90;;;;;;5105509;28;20780;-70
2021/06/14 07:40:49;;;;;;;3.10;2.90;;;20.10;99.90;;;;;;5110291;28;20440;-67
2021/06/14 07:43:16;;;;;;;6.37;3.50;;;20.30;99.90;;;;;;5106931;28;20431;-67
2021/06/14 07:45:44;;;;;;;6.83;3.40;;;20.30;99.90;;;;;;5108728;28;20998;-67
2021/06/14 07:48:10;;;;;;;3.40;3.10;;;20.30;99.90;;;;;;5108805;28;20472;-69
2021/06/14 07:50:38;;;;;;;6.43;3.07;;;20.30;99.90;;;;;;5109247;28;20437;-65
2021/06/14 07:53:04;;;;;;;3.90;3.03;;;20.30;99.90;;;;;;5107199;28;20438;-66
2021/06/14 07:55:31;;;;;;;5.33;3.23;;;20.30;99.90;;;;;;5112458;28;20447;-65
2021/06/14 07:57:57;;;;;;;2.90;2.67;;;20.30;99.90;;;;;;5111616;28;20959;-66
2021/06/14 08:00:23;;;;;;;3.20;2.80;;;20.20;99.90;;;;;;5112401;28;20521;-66
2021/06/14 08:02:49;;;;;;;4.43;2.90;;;20.50;99.90;;;;;;5108630;28;20186;-65
2021/06/14 08:05:15;;;;;;;4.67;2.80;;;20.50;99.90;;;;;;5110511;28;20443;-66
2021/06/14 08:07:41;;;;;;;3.70;2.90;;;20.50;99.90;;;;;;5113769;28;20453;-67
2021/06/14 08:10:11;;;;;;;4.60;3.10;;;20.50;99.90;;;;;;5110298;28;20724;-65
2021/06/14 08:12:43;;;;;;;4.80;2.77;;;20.60;99.90;;;;;;5110753;28;20433;-67
2021/06/14 08:15:09;;;;;;;4.40;2.83;;;20.90;99.80;;;;;;5108706;28;20451;-65
2021/06/14 08:17:35;;;;;;;5.40;2.70;;;21.10;99.90;;;;;;5108737;28;20781;-67
2021/06/14 08:20:09;;;;;;;3.50;3.20;;;21.20;99.90;;;;;;5108092;28;20411;-66
2021/06/14 08:25:20;;;;;;;7.73;3.17;;;21.00;99.90;;;;;;5067339;28;20534;-65
2021/06/14 08:27:46;;;;;;;3.27;2.97;;;21.30;99.90;;;;;;5100252;28;20533;-67
2021/06/14 08:30:18;;;;;;;3.43;3.10;;;21.20;99.90;;;;;;5103453;28;20195;-65
2021/06/14 08:32:44;;;;;;;3.30;2.90;;;21.40;99.90;;;;;;5111771;28;20432;-66
2021/06/14 08:35:13;;;;;;;3.83;3.10;;;21.50;99.80;;;;;;5124633;28;20466;-65
2021/06/14 08:37:46;;;;;;;7.97;3.97;;;21.80;99.60;;;;;;5113863;28;20435;-67
2021/06/14 08:40:15;;;;;;;5.50;3.33;;;21.80;99.60;;;;;;5126550;27;20447;-67
2021/06/14 08:42:41;;;;;;;4.80;3.37;;;22.00;98.80;;;;;;5121440;28;20894;-65
2021/06/14 08:47:54;;;;;;;3.30;3.00;;;22.20;99.70;;;;;;5101940;28;20251;-65
2021/06/14 08:50:20;;;;;;;4.20;3.83;;;22.50;98.60;;;;;;5111118;28;20435;-66
2021/06/14 08:52:47;;;;;;;3.30;3.00;;;22.60;98.40;;;;;;5111633;28;20412;-66
2021/06/14 08:55:14;;;;;;;3.70;2.87;;;22.50;97.80;;;;;;5125848;27;20766;-65
2021/06/14 08:57:40;;;;;;;4.00;3.10;;;22.70;99.90;;;;;;5112045;27;20454;-67
2021/06/14 09:00:13;;;;;;;2.80;2.60;;;22.70;99.20;;;;;;5099940;28;20493;-67
2021/06/14 09:02:38;;;;;;;2.77;2.50;;;22.80;97.50;;;;;;5096989;28;20188;-67
2021/06/14 09:05:06;;;;;;;3.70;2.70;;;22.80;97.80;;;;;;5100709;28;20416;-67
2021/06/14 09:07:32;;;;;;;2.93;2.73;;;23.00;96.90;;;;;;5113407;28;20218;-65
2021/06/14 09:09:58;;;;;;;3.80;3.33;;;23.30;97.50;;;;;;5114867;28;20418;-66
2021/06/14 09:12:34;;;;;;;5.23;3.23;;;23.20;97.40;;;;;;5116027;28;20538;-65
2021/06/14 09:15:10;;;;;;;3.90;2.97;;;23.30;97.60;;;;;;5127354;27;20180;-65
2021/06/14 09:17:36;;;;;;;2.40;2.20;;;23.10;95.90;;;;;;5111854;27;20868;-66
2021/06/14 09:20:10;;;;;;;3.10;2.50;;;23.10;97.00;;;;;;5111999;27;20439;-65
2021/06/14 09:22:36;;;;;;;3.27;2.40;;;22.90;96.80;;;;;;5109261;28;20797;-67
2021/06/14 09:25:07;;;;;;;2.37;2.17;;;23.00;96.60;;;;;;5108075;28;20502;-67
2021/06/14 09:27:33;;;;;;;3.00;2.70;;;23.00;95.60;;;;;;5110426;28;20307;-66
2021/06/14 09:30:19;;;;;;;3.17;2.93;;;23.10;96.50;;;;;;5104961;28;20495;-66
2021/06/14 09:33:07;;;;;;;3.97;3.00;;;23.10;95.10;;;;;;5108800;28;20696;-68
2021/06/14 09:35:34;;;;;;;3.40;3.10;;;23.30;94.40;;;;;;5106413;27;20436;-66
2021/06/14 09:38:01;;;;;;;3.20;2.40;;;23.00;94.90;;;;;;5109802;28;20436;-66
2021/06/14 09:40:33;;;;;;;3.03;2.83;;;22.70;93.80;;;;;;5112167;28;20485;-66
2021/06/14 09:43:00;;;;;;;3.87;2.77;;;22.40;94.80;;;;;;5110215;28;20786;-67
2021/06/14 09:45:26;;;;;;;5.13;2.80;;;22.40;94.50;;;;;;5108231;27;20965;-67
2021/06/14 09:47:54;;;;;;;4.07;2.83;;;22.50;94.50;;;;;;5105577;28;20467;-66
2021/06/14 09:50:29;;;;;;;3.60;3.10;;;22.70;94.20;;;;;;5112795;28;20210;-66
2021/06/14 09:53:16;;;;;;;5.53;3.27;;;22.60;94.20;;;;;;5100711;28;20465;-69
2021/06/14 09:55:46;;;;;;;5.67;2.60;;;22.80;94.20;;;;;;5109517;28;20873;-66
2021/06/14 09:58:14;;;;;;;3.67;2.57;;;23.00;93.90;;;;;;5117391;27;20583;-68
2021/06/14 10:01:09;;;;;;;4.87;2.90;;;22.90;94.40;;;;;;5120441;27;20475;-67
2021/06/14 10:03:47;;;;;;;2.50;2.30;;;22.80;94.20;;;;;;5087076;28;20604;-67
2021/06/14 10:06:14;;;;;;;5.67;2.53;;;22.90;93.70;;;;;;5101748;28;20490;-68
2021/06/14 10:08:44;;;;;;;2.50;2.27;;;22.60;93.80;;;;;;5113667;28;20919;-66
2021/06/14 10:11:12;;;;;;;2.70;2.50;;;22.60;93.50;;;;;;5102330;28;20457;-67
2021/06/14 10:13:41;;;;;;;4.23;2.67;;;22.40;93.60;;;;;;5112455;28;20489;-68
2021/06/14 10:16:15;;;;;;;4.57;2.50;;;22.20;93.80;;;;;;5101883;28;20436;-67
2021/06/14 10:18:52;;;;;;;2.70;2.50;;;21.80;94.80;;;;;;5091882;28;20456;-68
2021/06/14 10:21:30;;;;;;;3.93;3.30;;;21.60;95.90;;;;;;5103072;28;20478;-68
2021/06/14 10:23:59;;;;;;;5.10;2.63;;;21.50;97.90;;;;;;5113514;28;20506;-68
2021/06/14 10:26:26;;;;;;;3.77;3.30;;;21.40;97.30;;;;;;5100777;28;20484;-68
2021/06/14 10:28:52;;;;;;;2.90;2.70;;;21.40;97.50;;;;;;5102769;28;20408;-68
2021/06/14 10:31:19;;;;;;;2.80;2.50;;;21.60;97.80;;;;;;5103588;28;20445;-67
2021/06/14 10:33:50;;;;;;;3.60;3.30;;;21.90;97.60;;;;;;5093724;28;20490;-68
2021/06/14 10:36:20;;;;;;;3.57;2.80;;;22.00;96.60;;;;;;5094098;27;20969;-68
2021/06/14 10:38:48;;;;;;;2.93;2.43;;;22.00;96.70;;;;;;5107486;28;20435;-66
2021/06/14 10:41:14;;;;;;;3.13;2.83;;;22.00;95.40;;;;;;5110654;28;20483;-68
2021/06/14 10:43:40;;;;;;;3.07;2.87;;;22.10;95.00;;;;;;5112565;28;20430;-69
2021/06/14 10:46:10;;;;;;;2.67;2.47;;;22.30;94.30;;;;;;5104334;28;20476;-66
2021/06/14 10:48:36;;;;;;;3.40;2.30;;;22.30;93.50;;;;;;5110275;28;20432;-68
2021/06/14 10:51:15;;;;;;;3.23;2.03;;;22.30;91.60;;;;;;5108592;27;20501;-68
2021/06/14 10:53:41;;;;;;;5.53;2.60;;;22.40;90.80;;;;;;5107593;28;20765;-68
2021/06/14 10:56:07;;;;;;;4.43;2.10;;;22.70;90.90;;;;;;5108784;28;20480;-66
2021/06/14 10:58:33;;;;;;;2.33;2.13;;;22.70;89.50;;;;;;5105698;27;20464;-68
2021/06/14 11:01:07;;;;;;;6.90;2.27;;;22.80;90.20;;;;;;5110703;28;20432;-68
2021/06/14 11:03:41;;;;;;;1.83;1.60;;;23.00;89.90;;;;;;5119327;27;20435;-69
2021/06/14 11:06:24;;;;;;;3.13;2.03;;;23.30;88.40;;;;;;5110093;28;20472;-67
2021/06/14 11:09:02;;;;;;;2.30;2.10;;;23.50;90.50;;;;;;5103739;28;20437;-66
2021/06/14 11:11:28;;;;;;;6.63;2.40;;;23.50;87.30;;;;;;5107740;27;20526;-66
2021/06/14 11:13:54;;;;;;;2.80;2.33;;;23.40;88.00;;;;;;5106650;27;20558;-68
2021/06/14 11:16:21;;;;;;;3.13;2.33;;;23.00;87.60;;;;;;5105432;28;20509;-68
2021/06/14 11:18:53;;;;;;;4.67;2.43;;;23.20;88.30;;;;;;5106201;28;20176;-67
2021/06/14 11:21:21;;;;;;;3.33;2.20;;;22.90;88.20;;;;;;5105467;28;20482;-66
2021/06/14 11:23:49;;;;;;;2.67;2.43;;;23.20;87.90;;;;;;5104646;27;20426;-68
2021/06/14 11:26:30;;;;;;;3.90;2.50;;;23.20;88.70;;;;;;5102068;27;20484;-68
2021/06/14 11:28:59;;;;;;;2.80;2.30;;;23.10;86.40;;;;;;5106255;27;20435;-66
2021/06/14 11:31:27;;;;;;;2.57;2.37;;;23.10;87.10;;;;;;5105240;28;20996;-67
2021/06/14 11:33:55;;;;;;;2.47;2.27;;;23.40;86.70;;;;;;5111911;28;20414;-66
2021/06/14 11:36:22;;;;;;;2.80;2.20;;;23.20;83.90;;;;;;5110247;28;20457;-68
2021/06/14 11:38:49;;;;;;;2.83;2.20;;;23.40;84.80;;;;;;5109556;28;20433;-67
2021/06/14 11:41:34;;;;;;;3.53;2.60;;;23.60;85.80;;;;;;5106759;27;20541;-66
2021/06/14 11:44:19;;;;;;;2.63;2.37;;;23.50;85.50;;;;;;5107312;28;20426;-68
2021/06/14 11:46:45;;;;;;;4.03;2.40;;;23.30;86.10;;;;;;5105415;27;20482;-66
2021/06/14 11:49:11;;;;;;;2.80;2.60;;;23.20;86.20;;;;;;5111786;28;20508;-67
2021/06/14 11:51:37;;;;;;;5.63;3.00;;;23.00;88.60;;;;;;5111773;27;20446;-66
2021/06/14 11:54:04;;;;;;;2.97;2.67;;;22.70;90.10;;;;;;5110599;27;20425;-68
2021/06/14 11:56:35;;;;;;;3.10;2.80;;;22.60;90.10;;;;;;5116901;27;21122;-66
2021/06/14 11:59:02;;;;;;;4.87;3.20;;;22.60;90.30;;;;;;5114510;27;20408;-68
2021/06/14 12:01:31;;;;;;;7.10;3.33;;;22.60;90.20;;;;;;5112584;27;20477;-69
2021/06/14 12:04:02;;;;;;;3.50;2.97;;;22.60;90.30;;;;;;5119212;28;20425;-68
2021/06/14 12:06:40;;;;;;;3.53;3.00;;;22.50;90.30;;;;;;5109302;28;20548;-68
2021/06/14 12:09:11;;;;;;;4.33;3.07;;;22.40;90.40;;;;;;5112197;28;20415;-68
2021/06/14 12:11:36;;;;;;;3.00;2.53;;;22.20;90.70;;;;;;5118032;28;20460;-68
2021/06/14 12:14:19;;;;;;;3.43;3.10;;;22.10;91.10;;;;;;5116611;28;20949;-67
2021/06/14 12:16:48;;;;;;;4.03;3.00;;;22.00;91.50;;;;;;5109382;28;20208;-68
2021/06/14 12:19:19;;;;;;;3.40;3.10;;;22.00;91.50;;;;;;5109728;28;20428;-68
2021/06/14 12:21:52;;;;;;;5.67;2.90;;;22.10;91.40;;;;;;5109353;28;20503;-66
2021/06/14 12:24:18;;;;;;;5.47;3.30;;;22.10;91.50;;;;;;5110882;28;20424;-68
2021/06/14 12:26:44;;;;;;;4.87;3.43;;;22.00;91.60;;;;;;5111263;28;20475;-66
2021/06/14 12:29:23;;;;;;;3.23;2.93;;;22.20;91.20;;;;;;5119391;27;20477;-68
2021/06/14 12:32:16;;;;;;;6.93;3.13;;;22.20;91.20;;;;;;5112443;27;20204;-69
2021/06/14 12:34:44;;;;;;;3.00;2.70;;;22.20;91.40;;;;;;5114912;27;20431;-66
2021/06/14 12:37:29;;;;;;;3.50;3.20;;;22.10;91.50;;;;;;5117094;27;20461;-66
2021/06/14 12:40:04;;;;;;;3.47;3.20;;;22.10;91.80;;;;;;5119927;27;20422;-66
2021/06/14 12:42:31;;;;;;;4.20;3.80;;;22.00;92.20;;;;;;5109476;27;20530;-67
2021/06/14 12:45:04;;;;;;;3.37;2.70;;;21.80;92.80;;;;;;5116008;27;20485;-66
2021/06/14 12:47:31;;;;;;;5.50;3.37;;;21.80;93.70;;;;;;5114478;27;20834;-69
2021/06/14 12:50:02;;;;;;;4.30;2.97;;;21.90;94.50;;;;;;5116872;28;20423;-66
2021/06/14 12:52:30;;;;;;;3.23;2.93;;;22.00;93.80;;;;;;5116842;27;20871;-67
2021/06/14 12:54:56;;;;;;;5.07;3.20;;;21.90;94.20;;;;;;5116340;27;20518;-66
2021/06/14 12:57:32;;;;;;;3.50;3.30;;;21.80;95.50;;;;;;5108994;27;20441;-67
2021/06/14 12:59:58;;;;;;;4.00;3.70;;;21.90;95.40;;;;;;5110948;27;20757;-68